sensor_id;sensor_type;location;lat;lon;timestamp;pressure;altitude;pressure_sealevel;temperature;humidity
47815;BME280;33579;50.058;18.130;2022-10-16T00:01:04;99406.13;;;13.91;100.00
47815;BME280;33579;50.058;18.130;2022-10-16T00:02:06;99407.31;;;13.97;100.00
47815;BME280;33579;50.058;18.130;2022-10-16T00:03:08;99416.66;;;14.01;100.00
47815;BME280;33579;50.058;18.130;2022-10-16T00:04:10;99408.53;;;14.03;100.00
47815;BME280;33579;50.058;18.130;2022-10-16T00:05:13;99414.38;;;14.07;100.00
47815;BME280;33579;50.058;18.130;2022-10-16T00:06:16;99411.41;;;14.10;100.00
47815;BME280;33579;50.058;18.130;2022-10-16T00:07:19;99413.91;;;14.11;100.00
47815;BME280;33579;50.058;18.130;2022-10-16T00:08:21;99417.38;;;14.12;100.00
47815;BME280;33579;50.058;18.130;2022-10-16T00:09:23;99416.56;;;14.11;100.00
47815;BME280;33579;50.058;18.130;2022-10-16T00:10:25;99412.84;;;14.04;100.00
47815;BME280;33579;50.058;18.130;2022-10-16T00:11:30;99414.44;;;13.97;100.00
47815;BME280;33579;50.058;18.130;2022-10-16T00:12:32;99416.56;;;13.93;100.00
47815;BME280;33579;50.058;18.130;2022-10-16T00:13:36;99409.59;;;13.92;100.00
47815;BME280;33579;50.058;18.130;2022-10-16T00:14:38;99410.72;;;13.89;100.00
47815;BME280;33579;50.058;18.130;2022-10-16T00:15:41;99424.69;;;13.82;100.00
47815;BME280;33579;50.058;18.130;2022-10-16T00:16:43;99411.56;;;13.72;100.00
47815;BME280;33579;50.058;18.130;2022-10-16T00:17:45;99413.03;;;13.74;100.00
47815;BME280;33579;50.058;18.130;2022-10-16T00:18:47;99409.19;;;13.69;100.00
47815;BME280;33579;50.058;18.130;2022-10-16T00:19:49;99409.34;;;13.67;100.00
47815;BME280;33579;50.058;18.130;2022-10-16T00:20:51;99405.84;;;13.67;100.00
47815;BME280;33579;50.058;18.130;2022-10-16T00:21:53;99414.47;;;13.69;100.00
47815;BME280;33579;50.058;18.130;2022-10-16T00:22:55;99405.56;;;13.70;100.00
47815;BME280;33579;50.058;18.130;2022-10-16T00:24:03;99405.41;;;13.71;100.00
47815;BME280;33579;50.058;18.130;2022-10-16T00:25:05;99403.38;;;13.65;100.00
47815;BME280;33579;50.058;18.130;2022-10-16T00:26:14;99391.41;;;13.61;100.00
47815;BME280;33579;50.058;18.130;2022-10-16T00:27:17;99401.00;;;13.62;100.00
47815;BME280;33579;50.058;18.130;2022-10-16T00:28:19;99402.31;;;13.58;100.00
47815;BME280;33579;50.058;18.130;2022-10-16T00:29:20;99401.63;;;13.56;100.00
47815;BME280;33579;50.058;18.130;2022-10-16T00:30:23;99403.72;;;13.52;100.00
47815;BME280;33579;50.058;18.130;2022-10-16T00:31:25;99402.19;;;13.49;100.00
47815;BME280;33579;50.058;18.130;2022-10-16T00:32:26;99403.03;;;13.50;100.00
47815;BME280;33579;50.058;18.130;2022-10-16T00:33:29;99398.31;;;13.44;100.00
47815;BME280;33579;50.058;18.130;2022-10-16T00:34:31;99399.03;;;13.46;100.00
47815;BME280;33579;50.058;18.130;2022-10-16T00:35:33;99396.25;;;13.38;100.00
47815;BME280;33579;50.058;18.130;2022-10-16T00:36:35;99405.31;;;13.35;100.00
47815;BME280;33579;50.058;18.130;2022-10-16T00:37:37;99397.63;;;13.42;100.00
47815;BME280;33579;50.058;18.130;2022-10-16T00:38:39;99393.19;;;13.42;100.00
47815;BME280;33579;50.058;18.130;2022-10-16T00:39:41;99397.06;;;13.48;100.00
47815;BME280;33579;50.058;18.130;2022-10-16T00:40:43;99389.66;;;13.52;100.00
47815;BME280;33579;50.058;18.130;2022-10-16T00:41:45;99388.41;;;13.56;100.00
47815;BME280;33579;50.058;18.130;2022-10-16T00:42:47;99397.59;;;13.52;100.00
47815;BME280;33579;50.058;18.130;2022-10-16T00:43:53;99399.78;;;13.56;100.00
47815;BME280;33579;50.058;18.130;2022-10-16T00:44:56;99398.97;;;13.56;100.00
47815;BME280;33579;50.058;18.130;2022-10-16T00:46:04;99400.09;;;13.53;100.00
47815;BME280;33579;50.058;18.130;2022-10-16T00:47:17;99406.75;;;13.57;100.00
47815;BME280;33579;50.058;18.130;2022-10-16T00:48:20;99401.75;;;13.54;100.00
47815;BME280;33579;50.058;18.130;2022-10-16T00:49:22;99405.94;;;13.57;100.00
47815;BME280;33579;50.058;18.130;2022-10-16T00:50:33;99404.94;;;13.58;100.00
47815;BME280;33579;50.058;18.130;2022-10-16T00:51:41;99404.63;;;13.61;100.00
47815;BME280;33579;50.058;18.130;2022-10-16T00:52:46;99401.84;;;13.62;100.00
47815;BME280;33579;50.058;18.130;2022-10-16T00:53:49;99402.97;;;13.60;100.00
47815;BME280;33579;50.058;18.130;2022-10-16T00:54:52;99400.19;;;13.61;100.00
47815;BME280;33579;50.058;18.130;2022-10-16T00:55:55;99405.78;;;13.58;100.00
47815;BME280;33579;50.058;18.130;2022-10-16T00:57:00;99414.84;;;13.56;100.00
47815;BME280;33579;50.058;18.130;2022-10-16T00:58:03;99417.31;;;13.57;100.00
47815;BME280;33579;50.058;18.130;2022-10-16T00:59:10;99410.66;;;13.53;100.00
47815;BME280;33579;50.058;18.130;2022-10-16T01:00:19;99416.94;;;13.52;100.00
47815;BME280;33579;50.058;18.130;2022-10-16T01:01:21;99416.94;;;13.52;100.00
47815;BME280;33579;50.058;18.130;2022-10-16T01:02:23;99414.44;;;13.51;100.00
47815;BME280;33579;50.058;18.130;2022-10-16T01:03:31;99414.84;;;13.56;100.00
47815;BME280;33579;50.058;18.130;2022-10-16T01:04:37;99420.66;;;13.59;100.00
47815;BME280;33579;50.058;18.130;2022-10-16T01:05:47;99422.47;;;13.59;100.00
47815;BME280;33579;50.058;18.130;2022-10-16T01:07:01;99419.69;;;13.60;100.00
47815;BME280;33579;50.058;18.130;2022-10-16T01:08:16;99419.28;;;13.55;100.00
47815;BME280;33579;50.058;18.130;2022-10-16T01:10:38;99414.16;;;13.54;100.00
47815;BME280;33579;50.058;18.130;2022-10-16T01:11:54;99409.00;;;13.52;100.00
47815;BME280;33579;50.058;18.130;2022-10-16T01:13:07;99415.41;;;13.49;100.00
47815;BME280;33579;50.058;18.130;2022-10-16T01:14:21;99413.22;;;13.45;100.00
47815;BME280;33579;50.058;18.130;2022-10-16T01:15:32;99412.66;;;13.41;100.00
47815;BME280;33579;50.058;18.130;2022-10-16T01:16:43;99412.09;;;13.47;100.00
47815;BME280;33579;50.058;18.130;2022-10-16T01:18:37;99412.78;;;13.49;100.00
47815;BME280;33579;50.058;18.130;2022-10-16T01:19:41;99420.94;;;13.56;100.00
47815;BME280;33579;50.058;18.130;2022-10-16T01:21:01;99411.44;;;13.63;100.00
47815;BME280;33579;50.058;18.130;2022-10-16T01:22:06;99416.44;;;13.67;100.00
47815;BME280;33579;50.058;18.130;2022-10-16T01:24:38;99415.84;;;13.73;100.00
47815;BME280;33579;50.058;18.130;2022-10-16T01:28:25;99418.78;;;13.70;100.00
47815;BME280;33579;50.058;18.130;2022-10-16T01:29:42;99419.00;;;13.76;100.00
47815;BME280;33579;50.058;18.130;2022-10-16T01:30:47;99424.28;;;13.76;100.00
47815;BME280;33579;50.058;18.130;2022-10-16T01:31:54;99422.13;;;13.72;100.00
47815;BME280;33579;50.058;18.130;2022-10-16T01:33:24;99421.81;;;13.75;100.00
47815;BME280;33579;50.058;18.130;2022-10-16T01:34:32;99421.41;;;13.70;100.00
47815;BME280;33579;50.058;18.130;2022-10-16T01:35:39;99415.44;;;13.68;100.00
47815;BME280;33579;50.058;18.130;2022-10-16T01:36:49;99421.72;;;13.67;100.00
47815;BME280;33579;50.058;18.130;2022-10-16T01:38:01;99428.44;;;13.61;100.00
47815;BME280;33579;50.058;18.130;2022-10-16T01:39:06;99432.22;;;13.58;100.00
47815;BME280;33579;50.058;18.130;2022-10-16T01:40:13;99426.94;;;13.58;100.00
47815;BME280;33579;50.058;18.130;2022-10-16T01:41:29;99432.91;;;13.60;100.00
47815;BME280;33579;50.058;18.130;2022-10-16T01:42:37;99431.25;;;13.59;100.00
47815;BME280;33579;50.058;18.130;2022-10-16T01:44:08;99433.03;;;13.59;100.00
47815;BME280;33579;50.058;18.130;2022-10-16T01:45:14;99430.41;;;13.59;100.00
47815;BME280;33579;50.058;18.130;2022-10-16T01:46:18;99441.81;;;13.59;100.00
47815;BME280;33579;50.058;18.130;2022-10-16T01:47:23;99447.47;;;13.65;100.00
47815;BME280;33579;50.058;18.130;2022-10-16T01:48:29;99440.22;;;13.67;100.00
47815;BME280;33579;50.058;18.130;2022-10-16T01:49:33;99446.19;;;13.69;100.00
47815;BME280;33579;50.058;18.130;2022-10-16T01:50:37;99440.22;;;13.67;100.00
47815;BME280;33579;50.058;18.130;2022-10-16T01:51:41;99439.66;;;13.73;100.00
47815;BME280;33579;50.058;18.130;2022-10-16T01:52:48;99447.97;;;13.78;100.00
47815;BME280;33579;50.058;18.130;2022-10-16T01:53:55;99444.31;;;13.79;100.00
47815;BME280;33579;50.058;18.130;2022-10-16T01:55:00;99439.59;;;13.83;100.00
47815;BME280;33579;50.058;18.130;2022-10-16T01:56:08;99440.13;;;13.86;100.00
47815;BME280;33579;50.058;18.130;2022-10-16T01:57:12;99445.25;;;13.88;100.00
47815;BME280;33579;50.058;18.130;2022-10-16T01:58:15;99447.44;;;13.93;100.00
47815;BME280;33579;50.058;18.130;2022-10-16T01:59:20;99450.09;;;13.93;100.00
47815;BME280;33579;50.058;18.130;2022-10-16T02:00:23;99450.94;;;13.93;100.00
47815;BME280;33579;50.058;18.130;2022-10-16T02:01:26;99443.38;;;13.98;100.00
47815;BME280;33579;50.058;18.130;2022-10-16T02:02:31;99442.25;;;14.01;100.00
47815;BME280;33579;50.058;18.130;2022-10-16T02:03:36;99437.81;;;14.01;100.00
47815;BME280;33579;50.058;18.130;2022-10-16T02:04:51;99443.59;;;14.05;100.00
47815;BME280;33579;50.058;18.130;2022-10-16T02:05:56;99443.59;;;14.05;100.00
47815;BME280;33579;50.058;18.130;2022-10-16T02:07:00;99441.94;;;14.04;100.00
47815;BME280;33579;50.058;18.130;2022-10-16T02:08:02;99442.34;;;14.09;100.00
47815;BME280;33579;50.058;18.130;2022-10-16T02:09:06;99446.47;;;14.12;100.00
47815;BME280;33579;50.058;18.130;2022-10-16T02:10:08;99442.03;;;14.12;100.00
47815;BME280;33579;50.058;18.130;2022-10-16T02:11:10;99441.03;;;14.13;100.00
47815;BME280;33579;50.058;18.130;2022-10-16T02:12:23;99439.06;;;14.15;100.00
47815;BME280;33579;50.058;18.130;2022-10-16T02:13:34;99435.91;;;14.12;100.00
47815;BME280;33579;50.058;18.130;2022-10-16T02:14:39;99442.34;;;14.09;100.00
47815;BME280;33579;50.058;18.130;2022-10-16T02:15:41;99442.72;;;14.14;100.00
47815;BME280;33579;50.058;18.130;2022-10-16T02:16:45;99430.69;;;14.20;100.00
47815;BME280;33579;50.058;18.130;2022-10-16T02:17:48;99441.81;;;14.24;100.00
47815;BME280;33579;50.058;18.130;2022-10-16T02:18:50;99438.03;;;14.26;100.00
47815;BME280;33579;50.058;18.130;2022-10-16T02:19:54;99440.97;;;14.23;100.00
47815;BME280;33579;50.058;18.130;2022-10-16T02:21:02;99439.97;;;14.24;100.00
47815;BME280;33579;50.058;18.130;2022-10-16T02:22:09;99439.63;;;14.19;100.00
47815;BME280;33579;50.058;18.130;2022-10-16T02:23:20;99437.09;;;14.17;100.00
47815;BME280;33579;50.058;18.130;2022-10-16T02:24:43;99438.25;;;14.15;100.00
47815;BME280;33579;50.058;18.130;2022-10-16T02:25:50;99440.91;;;14.15;100.00
47815;BME280;33579;50.058;18.130;2022-10-16T02:27:10;99443.38;;;14.16;100.00
47815;BME280;33579;50.058;18.130;2022-10-16T02:28:20;99441.59;;;14.17;100.00
47815;BME280;33579;50.058;18.130;2022-10-16T02:29:25;99444.59;;;14.22;100.00
47815;BME280;33579;50.058;18.130;2022-10-16T02:30:36;99440.97;;;14.23;100.00
47815;BME280;33579;50.058;18.130;2022-10-16T02:31:44;99437.94;;;14.18;100.00
47815;BME280;33579;50.058;18.130;2022-10-16T02:32:48;99441.59;;;14.17;100.00
47815;BME280;33579;50.058;18.130;2022-10-16T02:33:51;99435.63;;;14.15;100.00
47815;BME280;33579;50.058;18.130;2022-10-16T02:34:54;99443.38;;;14.16;100.00
47815;BME280;33579;50.058;18.130;2022-10-16T02:35:57;99439.75;;;14.17;100.00
47815;BME280;33579;50.058;18.130;2022-10-16T02:37:01;99441.59;;;14.17;100.00
47815;BME280;33579;50.058;18.130;2022-10-16T02:38:06;99440.59;;;14.18;100.00
47815;BME280;33579;50.058;18.130;2022-10-16T02:39:09;99441.41;;;14.18;100.00
47815;BME280;33579;50.058;18.130;2022-10-16T02:40:12;99450.78;;;14.13;100.00
47815;BME280;33579;50.058;18.130;2022-10-16T02:41:14;99436.44;;;14.15;100.00
47815;BME280;33579;50.058;18.130;2022-10-16T02:42:17;99440.28;;;14.21;100.00
47815;BME280;33579;50.058;18.130;2022-10-16T02:43:20;99448.91;;;14.23;100.00
47815;BME280;33579;50.058;18.130;2022-10-16T02:44:21;99449.56;;;14.25;100.00
47815;BME280;33579;50.058;18.130;2022-10-16T02:45:23;99449.44;;;14.27;100.00
47815;BME280;33579;50.058;18.130;2022-10-16T02:46:25;99447.63;;;14.27;100.00
47815;BME280;33579;50.058;18.130;2022-10-16T02:47:27;99445.97;;;14.26;100.00
47815;BME280;33579;50.058;18.130;2022-10-16T02:48:29;99447.63;;;14.27;100.00
47815;BME280;33579;50.058;18.130;2022-10-16T02:49:31;99442.13;;;14.21;100.00
47815;BME280;33579;50.058;18.130;2022-10-16T02:50:34;99442.25;;;14.19;100.00
47815;BME280;33579;50.058;18.130;2022-10-16T02:51:36;99442.34;;;14.09;100.00
47815;BME280;33579;50.058;18.130;2022-10-16T02:52:38;99436.81;;;14.02;100.00
47815;BME280;33579;50.058;18.130;2022-10-16T02:53:40;99449.19;;;14.02;100.00
47815;BME280;33579;50.058;18.130;2022-10-16T02:54:41;99443.31;;;14.08;100.00
47815;BME280;33579;50.058;18.130;2022-10-16T02:55:43;99443.31;;;14.08;100.00
47815;BME280;33579;50.058;18.130;2022-10-16T02:56:45;99451.09;;;14.10;100.00
47815;BME280;33579;50.058;18.130;2022-10-16T02:57:46;99452.47;;;14.14;100.00
47815;BME280;33579;50.058;18.130;2022-10-16T02:58:49;99451.31;;;14.16;100.00
47815;BME280;33579;50.058;18.130;2022-10-16T02:59:51;99453.97;;;14.16;100.00
47815;BME280;33579;50.058;18.130;2022-10-16T03:00:54;99448.44;;;14.10;100.00
47815;BME280;33579;50.058;18.130;2022-10-16T03:01:56;99443.47;;;14.07;100.00
47815;BME280;33579;50.058;18.130;2022-10-16T03:02:59;99453.41;;;13.95;100.00
47815;BME280;33579;50.058;18.130;2022-10-16T03:04:01;99451.06;;;13.91;100.00
47815;BME280;33579;50.058;18.130;2022-10-16T03:05:02;99458.34;;;13.89;100.00
47815;BME280;33579;50.058;18.130;2022-10-16T03:06:04;99457.66;;;13.87;100.00
47815;BME280;33579;50.058;18.130;2022-10-16T03:07:06;99451.06;;;13.91;100.00
47815;BME280;33579;50.058;18.130;2022-10-16T03:08:08;99454.41;;;13.94;100.00
47815;BME280;33579;50.058;18.130;2022-10-16T03:09:11;99458.56;;;13.96;100.00
47815;BME280;33579;50.058;18.130;2022-10-16T03:10:14;99460.22;;;13.97;100.00
47815;BME280;33579;50.058;18.130;2022-10-16T03:11:16;99457.28;;;14.00;100.00
47815;BME280;33579;50.058;18.130;2022-10-16T03:12:19;99455.63;;;13.99;100.00
47815;BME280;33579;50.058;18.130;2022-10-16T03:13:21;99450.19;;;14.01;100.00
47815;BME280;33579;50.058;18.130;2022-10-16T03:14:24;99456.31;;;14.01;100.00
47815;BME280;33579;50.058;18.130;2022-10-16T03:15:26;99458.66;;;14.04;100.00
47815;BME280;33579;50.058;18.130;2022-10-16T03:16:29;99455.03;;;14.05;100.00
47815;BME280;33579;50.058;18.130;2022-10-16T03:17:31;99444.44;;;14.05;100.00
47815;BME280;33579;50.058;18.130;2022-10-16T03:18:33;99453.69;;;14.01;100.00
47815;BME280;33579;50.058;18.130;2022-10-16T03:19:35;99450.31;;;13.99;100.00
47815;BME280;33579;50.058;18.130;2022-10-16T03:20:36;99446.19;;;13.97;100.00
47815;BME280;33579;50.058;18.130;2022-10-16T03:21:39;99441.88;;;13.96;100.00
47815;BME280;33579;50.058;18.130;2022-10-16T03:22:41;99441.72;;;13.97;100.00
47815;BME280;33579;50.058;18.130;2022-10-16T03:23:44;99443.38;;;13.98;100.00
47815;BME280;33579;50.058;18.130;2022-10-16T03:24:45;99445.88;;;14.00;100.00
47815;BME280;33579;50.058;18.130;2022-10-16T03:25:48;99450.63;;;13.96;100.00
47815;BME280;33579;50.058;18.130;2022-10-16T03:26:50;99449.09;;;13.94;100.00
47815;BME280;33579;50.058;18.130;2022-10-16T03:27:51;99452.59;;;13.94;100.00
47815;BME280;33579;50.058;18.130;2022-10-16T03:28:53;99453.28;;;13.96;100.00
47815;BME280;33579;50.058;18.130;2022-10-16T03:29:55;99453.13;;;13.98;100.00
47815;BME280;33579;50.058;18.130;2022-10-16T03:30:58;99458.56;;;13.96;100.00
47815;BME280;33579;50.058;18.130;2022-10-16T03:32:00;99455.09;;;13.96;100.00
47815;BME280;33579;50.058;18.130;2022-10-16T03:33:02;99452.28;;;13.97;100.00
47815;BME280;33579;50.058;18.130;2022-10-16T03:34:04;99456.75;;;13.97;100.00
47815;BME280;33579;50.058;18.130;2022-10-16T03:35:07;99450.63;;;13.96;100.00
47815;BME280;33579;50.058;18.130;2022-10-16T03:36:09;99459.00;;;13.91;100.00
47815;BME280;33579;50.058;18.130;2022-10-16T03:37:11;99458.78;;;13.85;100.00
47815;BME280;33579;50.058;18.130;2022-10-16T03:38:12;99455.06;;;13.77;100.00
47815;BME280;33579;50.058;18.130;2022-10-16T03:39:14;99458.91;;;13.65;100.00
47815;BME280;33579;50.058;18.130;2022-10-16T03:40:16;99453.75;;;13.63;100.00
47815;BME280;33579;50.058;18.130;2022-10-16T03:41:19;99453.19;;;13.60;100.00
47815;BME280;33579;50.058;18.130;2022-10-16T03:42:21;99448.75;;;13.60;100.00
47815;BME280;33579;50.058;18.130;2022-10-16T03:43:24;99445.13;;;13.61;100.00
47815;BME280;33579;50.058;18.130;2022-10-16T03:44:25;99440.84;;;13.60;100.00
47815;BME280;33579;50.058;18.130;2022-10-16T03:45:27;99436.22;;;13.62;100.00
47815;BME280;33579;50.058;18.130;2022-10-16T03:46:29;99432.50;;;13.55;100.00
47815;BME280;33579;50.058;18.130;2022-10-16T03:47:31;99438.63;;;13.56;100.00
47815;BME280;33579;50.058;18.130;2022-10-16T03:48:33;99436.97;;;13.55;100.00
47815;BME280;33579;50.058;18.130;2022-10-16T03:49:35;99438.22;;;13.51;100.00
47815;BME280;33579;50.058;18.130;2022-10-16T03:50:38;99441.84;;;13.49;100.00
47815;BME280;33579;50.058;18.130;2022-10-16T03:51:39;99444.47;;;13.49;100.00
47815;BME280;33579;50.058;18.130;2022-10-16T03:52:41;99439.50;;;13.46;100.00
47815;BME280;33579;50.058;18.130;2022-10-16T03:53:44;99443.97;;;13.46;100.00
47815;BME280;33579;50.058;18.130;2022-10-16T03:54:45;99439.38;;;13.48;100.00
47815;BME280;33579;50.058;18.130;2022-10-16T03:55:47;99451.59;;;13.49;100.00
47815;BME280;33579;50.058;18.130;2022-10-16T03:56:48;99449.63;;;13.51;100.00
47815;BME280;33579;50.058;18.130;2022-10-16T03:57:52;99451.44;;;13.51;100.00
47815;BME280;33579;50.058;18.130;2022-10-16T03:58:54;99457.88;;;13.48;100.00
47815;BME280;33579;50.058;18.130;2022-10-16T03:59:56;99461.19;;;13.50;100.00
47815;BME280;33579;50.058;18.130;2022-10-16T04:00:57;99464.25;;;13.45;100.00
47815;BME280;33579;50.058;18.130;2022-10-16T04:02:00;99466.19;;;13.43;100.00
47815;BME280;33579;50.058;18.130;2022-10-16T04:03:01;99466.19;;;13.43;100.00
47815;BME280;33579;50.058;18.130;2022-10-16T04:04:03;99466.50;;;13.40;100.00
47815;BME280;33579;50.058;18.130;2022-10-16T04:05:05;99465.78;;;13.38;100.00
47815;BME280;33579;50.058;18.130;2022-10-16T04:06:07;99467.44;;;13.39;100.00
47815;BME280;33579;50.058;18.130;2022-10-16T04:07:09;99472.34;;;13.34;100.00
47815;BME280;33579;50.058;18.130;2022-10-16T04:08:11;99463.44;;;13.35;100.00
47815;BME280;33579;50.058;18.130;2022-10-16T04:09:13;99467.19;;;13.32;100.00
47815;BME280;33579;50.058;18.130;2022-10-16T04:10:15;99465.41;;;13.33;100.00
47815;BME280;33579;50.058;18.130;2022-10-16T04:11:18;99465.25;;;13.34;100.00
47815;BME280;33579;50.058;18.130;2022-10-16T04:12:19;99466.94;;;13.35;100.00
47815;BME280;33579;50.058;18.130;2022-10-16T04:13:22;99472.22;;;13.35;100.00
47815;BME280;33579;50.058;18.130;2022-10-16T04:14:24;99468.72;;;13.35;100.00
47815;BME280;33579;50.058;18.130;2022-10-16T04:15:27;99466.69;;;13.29;100.00
47815;BME280;33579;50.058;18.130;2022-10-16T04:16:29;99469.59;;;13.26;100.00
47815;BME280;33579;50.058;18.130;2022-10-16T04:17:31;99475.16;;;13.23;100.00
47815;BME280;33579;50.058;18.130;2022-10-16T04:18:34;99472.66;;;13.21;100.00
47815;BME280;33579;50.058;18.130;2022-10-16T04:19:35;99472.66;;;13.21;100.00
47815;BME280;33579;50.058;18.130;2022-10-16T04:20:37;99472.94;;;13.18;100.00
47815;BME280;33579;50.058;18.130;2022-10-16T04:21:39;99463.22;;;13.08;100.00
47815;BME280;33579;50.058;18.130;2022-10-16T04:22:41;99466.47;;;13.02;100.00
47815;BME280;33579;50.058;18.130;2022-10-16T04:23:42;99467.16;;;13.04;100.00
47815;BME280;33579;50.058;18.130;2022-10-16T04:24:44;99469.78;;;13.04;100.00
47815;BME280;33579;50.058;18.130;2022-10-16T04:25:46;99475.91;;;13.05;100.00
47815;BME280;33579;50.058;18.130;2022-10-16T04:26:49;99476.91;;;13.04;100.00
47815;BME280;33579;50.058;18.130;2022-10-16T04:27:55;99480.50;;;13.03;100.00
47815;BME280;33579;50.058;18.130;2022-10-16T04:28:56;99483.28;;;13.01;100.00
47815;BME280;33579;50.058;18.130;2022-10-16T04:29:59;99479.81;;;13.01;100.00
47815;BME280;33579;50.058;18.130;2022-10-16T04:31:03;99480.78;;;13.00;100.00
47815;BME280;33579;50.058;18.130;2022-10-16T04:32:05;99477.88;;;12.93;100.00
47815;BME280;33579;50.058;18.130;2022-10-16T04:33:09;99474.41;;;12.92;100.00
47815;BME280;33579;50.058;18.130;2022-10-16T04:34:11;99484.00;;;12.93;100.00
47815;BME280;33579;50.058;18.130;2022-10-16T04:35:13;99482.47;;;12.91;100.00
47815;BME280;33579;50.058;18.130;2022-10-16T04:36:15;99483.72;;;12.97;100.00
47815;BME280;33579;50.058;18.130;2022-10-16T04:37:17;99483.72;;;12.97;100.00
47815;BME280;33579;50.058;18.130;2022-10-16T04:38:20;99479.97;;;12.99;100.00
47815;BME280;33579;50.058;18.130;2022-10-16T04:39:21;99482.31;;;13.02;100.00
47815;BME280;33579;50.058;18.130;2022-10-16T04:40:23;99478.41;;;13.06;100.00
47815;BME280;33579;50.058;18.130;2022-10-16T04:41:25;99476.31;;;13.10;100.00
47815;BME280;33579;50.058;18.130;2022-10-16T04:42:26;99478.94;;;13.10;100.00
47815;BME280;33579;50.058;18.130;2022-10-16T04:43:28;99486.59;;;13.13;100.00
47815;BME280;33579;50.058;18.130;2022-10-16T04:44:30;99490.63;;;13.17;100.00
47815;BME280;33579;50.058;18.130;2022-10-16T04:45:32;99483.38;;;13.19;100.00
47815;BME280;33579;50.058;18.130;2022-10-16T04:46:35;99485.72;;;13.23;100.00
47815;BME280;33579;50.058;18.130;2022-10-16T04:47:37;99486.28;;;13.26;100.00
47815;BME280;33579;50.058;18.130;2022-10-16T04:48:39;99485.59;;;13.24;100.00
47815;BME280;33579;50.058;18.130;2022-10-16T04:49:41;99489.06;;;13.25;100.00
47815;BME280;33579;50.058;18.130;2022-10-16T04:50:43;99483.63;;;13.26;100.00
47815;BME280;33579;50.058;18.130;2022-10-16T04:51:44;99489.59;;;13.28;100.00
47815;BME280;33579;50.058;18.130;2022-10-16T04:52:46;99494.75;;;13.30;100.00
47815;BME280;33579;50.058;18.130;2022-10-16T04:53:48;99488.50;;;13.31;100.00
47815;BME280;33579;50.058;18.130;2022-10-16T04:54:50;99483.75;;;13.34;100.00
47815;BME280;33579;50.058;18.130;2022-10-16T04:55:52;99485.69;;;13.32;100.00
47815;BME280;33579;50.058;18.130;2022-10-16T04:56:54;99489.19;;;13.33;100.00
47815;BME280;33579;50.058;18.130;2022-10-16T04:57:57;99493.22;;;13.27;100.00
47815;BME280;33579;50.058;18.130;2022-10-16T04:58:59;99498.25;;;13.20;100.00
47815;BME280;33579;50.058;18.130;2022-10-16T05:00:01;99493.25;;;13.17;100.00
47815;BME280;33579;50.058;18.130;2022-10-16T05:01:02;99494.38;;;13.15;100.00
47815;BME280;33579;50.058;18.130;2022-10-16T05:02:04;99493.69;;;13.13;100.00
47815;BME280;33579;50.058;18.130;2022-10-16T05:03:06;99501.31;;;13.16;100.00
47815;BME280;33579;50.058;18.130;2022-10-16T05:04:08;99497.56;;;13.18;100.00
47815;BME280;33579;50.058;18.130;2022-10-16T05:05:12;99494.09;;;13.18;100.00
47815;BME280;33579;50.058;18.130;2022-10-16T05:06:14;99501.19;;;13.17;100.00
47815;BME280;33579;50.058;18.130;2022-10-16T05:07:15;99501.44;;;13.14;100.00
47815;BME280;33579;50.058;18.130;2022-10-16T05:08:17;99501.75;;;13.11;100.00
47815;BME280;33579;50.058;18.130;2022-10-16T05:09:19;99507.72;;;13.13;100.00
47815;BME280;33579;50.058;18.130;2022-10-16T05:10:21;99505.50;;;13.18;100.00
47815;BME280;33579;50.058;18.130;2022-10-16T05:11:23;99511.16;;;13.24;100.00
47815;BME280;33579;50.058;18.130;2022-10-16T05:12:25;99513.38;;;13.28;100.00
47815;BME280;33579;50.058;18.130;2022-10-16T05:13:27;99509.34;;;13.34;100.00
47815;BME280;33579;50.058;18.130;2022-10-16T05:14:29;99508.22;;;13.37;100.00
47815;BME280;33579;50.058;18.130;2022-10-16T05:15:31;99511.41;;;13.40;100.00
47815;BME280;33579;50.058;18.130;2022-10-16T05:16:33;99514.63;;;13.44;100.00
47815;BME280;33579;50.058;18.130;2022-10-16T05:17:35;99513.63;;;13.45;100.00
47815;BME280;33579;50.058;18.130;2022-10-16T05:18:40;99517.69;;;13.49;100.00
47815;BME280;33579;50.058;18.130;2022-10-16T05:19:42;99512.22;;;13.51;100.00
47815;BME280;33579;50.058;18.130;2022-10-16T05:20:43;99513.19;;;13.49;100.00
47815;BME280;33579;50.058;18.130;2022-10-16T05:21:45;99512.53;;;13.47;100.00
47815;BME280;33579;50.058;18.130;2022-10-16T05:22:47;99505.56;;;13.46;100.00
47815;BME280;33579;50.058;18.130;2022-10-16T05:23:49;99502.78;;;13.48;100.00
47815;BME280;33579;50.058;18.130;2022-10-16T05:24:51;99518.91;;;13.45;100.00
47815;BME280;33579;50.058;18.130;2022-10-16T05:25:57;99513.22;;;13.40;100.00
47815;BME280;33579;50.058;18.130;2022-10-16T05:26:59;99507.78;;;13.41;100.00
47815;BME280;33579;50.058;18.130;2022-10-16T05:28:01;99522.41;;;13.45;100.00
47815;BME280;33579;50.058;18.130;2022-10-16T05:29:03;99518.78;;;13.46;100.00
47815;BME280;33579;50.058;18.130;2022-10-16T05:30:06;99520.44;;;13.47;100.00
47815;BME280;33579;50.058;18.130;2022-10-16T05:31:12;99518.19;;;13.43;100.00
47815;BME280;33579;50.058;18.130;2022-10-16T05:32:16;99520.16;;;13.41;100.00
47815;BME280;33579;50.058;18.130;2022-10-16T05:33:20;99523.50;;;13.43;100.00
47815;BME280;33579;50.058;18.130;2022-10-16T05:34:22;99520.47;;;13.38;100.00
47815;BME280;33579;50.058;18.130;2022-10-16T05:35:24;99523.09;;;13.38;100.00
47815;BME280;33579;50.058;18.130;2022-10-16T05:36:26;99519.78;;;13.35;100.00